Home > Products > Valid Products > TAF

000
FTUS42 KCAE 162000 AAA
TAFCUB
TAF AMD
KCUB 162046Z 1621/1718 VRB03KT P6SM SCT050
     FM170600 VRB03KT 4SM BR SCT025
     FM171000 VRB03KT 1SM BR OVC006
     FM171300 03004KT P6SM BKN015=



000
FTUS42 KCAE 162000 AAA
TAFOGB
TAF AMD
KOGB 162046Z 1621/1718 VRB03KT P6SM BKN060
     FM170300 VRB03KT 3SM BR SCT010
     FM170600 VRB03KT 1/2SM FG OVC003
     FM171300 03004KT P6SM BKN015=



000
FTUS42 KCAE 162000 AAA
TAFDNL
TAF AMD
KDNL 162046Z 1621/1718 VRB05KT P6SM VCSH SCT050
     FM170600 VRB03KT 4SM BR SCT025
     FM171000 VRB03KT 1SM BR OVC006
     FM171300 03004KT P6SM BKN015=



000
FTUS42 KCAE 162000 AAA
TAFCAE
TAF AMD
KCAE 162046Z 1621/1718 VRB03KT P6SM SCT050
     FM170600 VRB03KT 4SM BR SCT025
     FM171000 VRB03KT 1SM BR OVC006
     FM171300 03004KT P6SM BKN015=



000
FTUS42 KCAE 162000 AAA
TAFAGS
TAF AMD
KAGS 162046Z 1621/1718 VRB04KT P6SM VCSH SCT050
     FM170300 VRB03KT 3SM BR SCT010
     FM170600 VRB03KT 1/2SM FG OVC003
     FM171300 03004KT P6SM BKN015=



000
FTUS42 KCAE 161700
TAFCAE
TAF
KCAE 161729Z 1618/1718 VRB04KT P6SM BKN035
     FM170600 VRB03KT 4SM BR SCT025
     FM171000 VRB03KT 1SM BR OVC006
     FM171300 03004KT P6SM BKN015=



000
FTUS42 KCAE 161700
TAFCUB
TAF
KCUB 161729Z 1618/1718 VRB04KT P6SM BKN035
     FM170600 VRB03KT 4SM BR SCT025
     FM171000 VRB03KT 1SM BR OVC006
     FM171300 03004KT P6SM BKN015=



000
FTUS42 KCAE 161700
TAFAGS
TAF
KAGS 161729Z 1618/1718 VRB05KT P6SM BKN035
     FM170300 VRB03KT 3SM BR SCT010
     FM170600 VRB03KT 1/2SM FG OVC003
     FM171300 03004KT P6SM BKN015=



000
FTUS42 KCAE 161700
TAFOGB
TAF
KOGB 161729Z 1618/1718 32005KT P6SM BKN035
     FM170300 VRB03KT 3SM BR SCT010
     FM170600 VRB03KT 1/2SM FG OVC003
     FM171300 03004KT P6SM BKN015=



000
FTUS42 KCAE 161700
TAFDNL
TAF
KDNL 161729Z 1618/1718 VRB05KT P6SM BKN035
     FM170600 VRB03KT 4SM BR SCT025
     FM171000 VRB03KT 1SM BR OVC006
     FM171300 03004KT P6SM BKN015=



000
FTUS42 KCAE 161600 AAC
TAFOGB
TAF AMD
KOGB 161651Z 1617/1712 32005KT P6SM BKN035
     FM170300 VRB03KT 3SM BR SCT010
     FM170600 VRB03KT 1/2SM FG OVC003=



000
FTUS42 KCAE 161600 AAD
TAFAGS
TAF AMD
KAGS 161651Z 1617/1712 VRB04KT P6SM VCSH BKN024
     FM161800 VRB05KT P6SM BKN035
     FM170200 VRB03KT 3SM BR SCT010
     FM170500 VRB03KT 1/2SM FG OVC003=



000
FTUS42 KCAE 161600 AAC
TAFDNL
TAF AMD
KDNL 161637Z 1617/1712 VRB04KT P6SM VCSH BKN015
     FM161800 VRB05KT P6SM BKN035
     FM170300 VRB03KT 4SM BR SCT025
     FM171000 VRB03KT 1SM BR OVC006=



000
FTUS42 KCAE 161600 AAC
TAFAGS
TAF AMD
KAGS 161637Z 1617/1712 VRB04KT P6SM VCSH BKN015
     FM161800 VRB05KT P6SM BKN035
     FM170200 VRB03KT 3SM BR SCT010
     FM170500 VRB03KT 1/2SM FG OVC003=



000
FTUS42 KCAE 161400 AAB
TAFOGB
TAF AMD
KOGB 161421Z 1614/1712 VRB03KT P6SM BKN012
     FM161700 32005KT P6SM BKN035
     FM170300 VRB03KT 3SM BR SCT010
     FM170600 VRB03KT 1/2SM FG OVC003=



000
FTUS42 KCAE 161400 AAB
TAFAGS
TAF AMD
KAGS 161406Z 1614/1712 VRB04KT P6SM BKN015
     FM161800 VRB05KT P6SM BKN035
     FM170200 VRB03KT 3SM BR SCT010
     FM170500 VRB03KT 1/2SM FG OVC003=



000
FTUS42 KCAE 161400 AAB
TAFDNL
TAF AMD
KDNL 161404Z 1614/1712 VRB04KT P6SM BKN015
     FM161800 VRB05KT P6SM BKN035
     FM170300 VRB03KT 4SM BR SCT025
     FM171000 VRB03KT 1SM BR OVC006=



000
FTUS42 KCAE 161400 AAA
TAFCUB
TAF AMD
KCUB 161404Z 1614/1712 VRB04KT P6SM BKN022
     FM161800 VRB04KT P6SM BKN035
     FM170300 VRB03KT 4SM BR SCT025
     FM171000 VRB03KT 1SM BR OVC006=



000
FTUS42 KCAE 161300 AAA
TAFOGB
TAF AMD
KOGB 161349Z 1614/1712 VRB04KT P6SM BKN009
     FM161500 VRB03KT P6SM BKN015
     FM161700 32005KT P6SM BKN035
     FM170300 VRB03KT 3SM BR SCT010
     FM170600 VRB03KT 1/2SM FG OVC003=



000
FTUS42 KCAE 161300 AAA
TAFCAE
TAF AMD
KCAE 161340Z 1614/1712 VRB04KT P6SM BKN022
     FM161800 VRB04KT P6SM BKN035
     FM170300 VRB03KT 4SM BR SCT025
     FM171000 VRB03KT 1SM BR OVC006=



000
FTUS42 KCAE 161300 AAA
TAFDNL
TAF AMD
KDNL 161302Z 1613/1712 VRB03KT 6SM BR VCSH BKN006
     FM161600 VRB04KT P6SM BKN015
     FM161800 VRB05KT P6SM BKN035
     FM170300 VRB03KT 4SM BR SCT025
     FM171000 VRB03KT 1SM BR OVC006=



000
FTUS42 KCAE 161300 AAA
TAFAGS
TAF AMD
KAGS 161301Z 1613/1712 00000KT 3SM BR VCSH SCT004 BKN010
     FM161600 VRB04KT P6SM BKN015
     FM161800 VRB05KT P6SM BKN035
     FM170200 VRB03KT 3SM BR SCT010
     FM170500 VRB03KT 1/2SM FG OVC003=



000
FTUS42 KCAE 161100
TAFDNL
TAF
KDNL 161139Z 1612/1712 VRB03KT 3SM BR VCSH OVC003
     FM161500 VRB04KT P6SM OVC008
     FM161700 VRB04KT P6SM BKN015
     FM161800 VRB05KT P6SM BKN035
     FM170300 VRB03KT 4SM BR SCT025
     FM171000 VRB03KT 1SM BR OVC006=



000
FTUS42 KCAE 161100
TAFCAE
TAF
KCAE 161139Z 1612/1712 VRB03KT 6SM BR SCT007 OVC015
      TEMPO 1612/1614 2SM BR BKN007
     FM161800 VRB05KT P6SM BKN035
     FM170300 VRB03KT 4SM BR SCT025
     FM171000 VRB03KT 1SM BR OVC006=



000
FTUS42 KCAE 161100
TAFOGB
TAF
KOGB 161139Z 1612/1712 VRB04KT 1SM BR OVC003
     FM161400 VRB03KT P6SM BKN015
     FM161700 32005KT P6SM BKN035
     FM170300 VRB03KT 3SM BR SCT010
     FM170600 VRB03KT 1/2SM FG OVC003=



000
FTUS42 KCAE 161100
TAFCUB
TAF
KCUB 161139Z 1612/1712 00000KT 6SM BR SCT007 OVC015
      TEMPO 1612/1614 2SM BR BKN007
     FM161800 VRB05KT P6SM BKN035
     FM170300 VRB03KT 4SM BR SCT025
     FM171000 VRB03KT 1SM BR OVC006=



000
FTUS42 KCAE 161100
TAFAGS
TAF
KAGS 161139Z 1612/1712 00000KT 3SM BR VCSH OVC003
     FM161500 VRB04KT P6SM OVC008
     FM161700 VRB04KT P6SM BKN015
     FM161800 VRB05KT P6SM BKN035
     FM170200 VRB03KT 3SM BR SCT010
     FM170500 VRB03KT 1/2SM FG OVC003=



000
FTUS42 KCAE 161000 AAC
TAFOGB
TAF AMD
KOGB 161017Z 1610/1706 VRB04KT 6SM BR VCSH BKN005
      TEMPO 1610/1614 3SM BR BKN004
     FM161400 VRB03KT P6SM BKN015
     FM161700 32005KT P6SM BKN035=



000
FTUS42 KCAE 160900 AAA
TAFCAE
TAF AMD
KCAE 160936Z 1610/1706 VRB03KT 6SM BR VCSH BKN015
      TEMPO 1610/1613 4SM BR BKN007
     FM161800 29006KT P6SM BKN035=



000
FTUS42 KCAE 160900 AAB
TAFAGS
TAF AMD
KAGS 160936Z 1610/1706 00000KT 3SM BR VCSH OVC004
      TEMPO 1611/1614 -SHRA BKN007
     FM161500 VRB03KT P6SM BKN015
     FM161700 VRB05KT P6SM BKN035=



000
FTUS42 KCAE 160900 AAC
TAFDNL
TAF AMD
KDNL 160936Z 1610/1706 VRB03KT 3SM BR VCSH OVC004
      TEMPO 1611/1614 -SHRA BKN007
     FM161400 VRB04KT P6SM BKN015
     FM161700 VRB05KT P6SM BKN035=



000
FTUS42 KCAE 160900 AAA
TAFCUB
TAF AMD
KCUB 160936Z 1610/1706 00000KT 6SM BR VCSH BKN015
      TEMPO 1610/1613 4SM BR BKN007
     FM161800 VRB05KT P6SM BKN035=



000
FTUS42 KCAE 160900 AAB
TAFOGB
TAF AMD
KOGB 160936Z 1610/1706 VRB04KT 6SM BR VCSH BKN004
      TEMPO 1610/1614 3SM BR BKN006
     FM161400 VRB03KT P6SM BKN015
     FM161700 32005KT P6SM BKN035=



000
FTUS42 KCAE 160700 AAA
TAFAGS
TAF AMD
KAGS 160755Z 1608/1706 00000KT 3SM BR VCSH OVC005
      TEMPO 1608/1610 -SHRA BKN004
     FM161500 VRB03KT P6SM BKN015
     FM161700 VRB05KT P6SM BKN040=



000
FTUS42 KCAE 160700 AAB
TAFDNL
TAF AMD
KDNL 160754Z 1608/1706 VRB03KT 3SM BR VCSH OVC004
      TEMPO 1608/1610 2SM SHRA
     FM161400 VRB04KT P6SM BKN015
     FM161700 VRB05KT P6SM BKN040=



000
FTUS42 KCAE 160600 AAA
TAFOGB
TAF AMD
KOGB 160645Z 1607/1706 VRB04KT 6SM BR VCSH BKN004
      TEMPO 1608/1610 2SM TSRA BKN010CB
     FM161000 00000KT 3SM BR OVC005
     FM161400 VRB03KT P6SM BKN015
     FM161700 32005KT P6SM BKN040=



000
FTUS42 KCAE 160600 AAA
TAFDNL
TAF AMD
KDNL 160609Z 1606/1706 VRB03KT P6SM VCSH SCT006 OVC015
      TEMPO 1606/1608 2SM TSRA BKN006CB
     FM160800 VRB03KT 3SM BR VCSH OVC005
     FM161400 VRB04KT P6SM BKN015
     FM161700 VRB05KT P6SM BKN040=



000
FTUS42 KCAE 160500
TAFDNL
TAF
KDNL 160531Z 1606/1706 VRB03KT P6SM VCSH SCT006 OVC015
      TEMPO 1606/1608 2SM SHRA BKN006
     FM160800 VRB03KT 3SM BR VCSH OVC005
     FM161400 VRB04KT P6SM BKN015
     FM161700 VRB05KT P6SM BKN040=



000
FTUS42 KCAE 160500
TAFCUB
TAF
KCUB 160531Z 1606/1706 00000KT 6SM BR VCSH OVC020
      TEMPO 1606/1610 5SM -SHRA
     FM161000 00000KT 5SM BR VCSH OVC007
     FM161400 VRB03KT P6SM BKN020
     FM161700 VRB05KT P6SM BKN040=



000
FTUS42 KCAE 160500
TAFCAE
TAF
KCAE 160531Z 1606/1706 VRB03KT 6SM BR VCSH OVC015
      TEMPO 1606/1610 5SM -SHRA
     FM161000 VRB03KT 5SM BR VCSH OVC007
     FM161400 VRB03KT P6SM BKN020
     FM161700 29006KT P6SM BKN040=



000
FTUS42 KCAE 160500
TAFAGS
TAF
KAGS 160531Z 1606/1706 00000KT 4SM BR VCSH SCT006 OVC015
      TEMPO 1606/1608 2SM SHRA BKN006
     FM160800 00000KT 3SM BR VCSH OVC005
     FM161500 VRB03KT P6SM BKN015
     FM161700 VRB05KT P6SM BKN040=



000
FTUS42 KCAE 160500
TAFOGB
TAF
KOGB 160531Z 1606/1706 VRB04KT 6SM BR VCSH SCT015 OVC025
      TEMPO 1606/1609 BKN006
     FM160900 00000KT 3SM BR OVC006
     FM161400 VRB03KT P6SM BKN015
     FM161700 32005KT P6SM BKN040=



000
FTUS42 KCAE 160400 AAC
TAFOGB
TAF AMD
KOGB 160435Z 1605/1624 VRB04KT P6SM VCSH SCT015 OVC025
      TEMPO 1605/1608 BKN006
     FM160800 00000KT 3SM BR BKN006 OVC015
     FM161400 VRB03KT P6SM BKN015
     FM161600 VRB04KT P6SM BKN025
     FM161800 VRB05KT P6SM BKN040=



000
FTUS42 KCAE 160400 AAB
TAFDNL
TAF AMD
KDNL 160433Z 1605/1624 VRB03KT P6SM VCSH OVC015
     FM160700 VRB03KT P6SM OVC008
     FM160900 VRB03KT 3SM BR OVC007
     FM161400 VRB04KT P6SM BKN015
     FM161700 VRB04KT P6SM BKN025
     FM161900 VRB05KT P6SM BKN040=



000
FTUS42 KCAE 160400 AAB
TAFAGS
TAF AMD
KAGS 160432Z 1605/1624 00000KT 4SM BR VCSH OVC015
      TEMPO 1605/1607 -SHRA BKN009
     FM160700 00000KT 3SM BR OVC005
     FM161500 VRB03KT P6SM BKN015
     FM161700 VRB04KT P6SM BKN025
     FM161900 VRB05KT P6SM BKN040=



000
FTUS42 KCAE 160400 AAB
TAFCUB
TAF AMD
KCUB 160420Z 1604/1624 00000KT 6SM BR VCSH OVC030
     FM160700 00000KT 5SM BR OVC009
     FM161400 VRB03KT P6SM BKN015
     FM161700 VRB04KT P6SM BKN025
     FM161900 VRB05KT P6SM BKN040=



000
FTUS42 KCAE 160400 AAB
TAFCAE
TAF AMD
KCAE 160419Z 1604/1624 VRB03KT P6SM VCSH OVC015
     FM160700 00000KT 6SM BR OVC008
     FM160900 VRB03KT 3SM BR OVC003
     FM161400 VRB03KT P6SM BKN015
     FM161700 VRB04KT P6SM BKN025
     FM161900 VRB05KT P6SM BKN040=



000
FTUS42 KCAE 160200 AAA
TAFDNL
TAF AMD
KDNL 160248Z 1603/1624 VRB03KT P6SM BKN009 OVC025
     FM160400 VRB03KT P6SM VCSH OVC009
     FM160700 VRB03KT P6SM OVC008
     FM160900 VRB03KT 3SM BR OVC007
     FM161400 VRB04KT P6SM BKN015
     FM161700 VRB04KT P6SM BKN025
     FM161900 VRB05KT P6SM BKN040=



000
FTUS42 KCAE 160200 AAB
TAFOGB
TAF AMD
KOGB 160248Z 1603/1624 VRB04KT P6SM SCT015 OVC025
     FM160700 00000KT 3SM BR BKN015
     FM160900 00000KT 1SM BR OVC007
     FM161400 VRB03KT P6SM BKN015
     FM161600 VRB04KT P6SM BKN025
     FM161800 VRB05KT P6SM BKN040=



000
FTUS42 KCAE 160200 AAA
TAFAGS
TAF AMD
KAGS 160248Z 1603/1624 00000KT 6SM BR SCT010 OVC030
     FM160400 00000KT 4SM BR VCSH OVC015
     FM160700 00000KT 2SM BR OVC004
     FM161500 VRB03KT P6SM BKN015
     FM161700 VRB04KT P6SM BKN025
     FM161900 VRB05KT P6SM BKN040=



000
FTUS42 KCAE 160200 AAA
TAFCAE
TAF AMD
KCAE 160248Z 1603/1624 VRB03KT P6SM OVC010
     FM160700 00000KT 6SM BR OVC008
     FM160900 VRB03KT 3SM BR OVC003
     FM161400 VRB03KT P6SM BKN015
     FM161700 VRB04KT P6SM BKN025
     FM161900 VRB05KT P6SM BKN040=



000
FTUS42 KCAE 160200 AAA
TAFCUB
TAF AMD
KCUB 160248Z 1603/1624 00000KT 6SM BR OVC015
     FM160600 00000KT 5SM BR OVC009
     FM161400 VRB03KT P6SM BKN015
     FM161700 VRB04KT P6SM BKN025
     FM161900 VRB05KT P6SM BKN040=



000
FTUS42 KCAE 160100 AAA
TAFOGB
TAF AMD
KOGB 160131Z 1602/1624 VRB04KT P6SM SCT015 OVC025
      TEMPO 1602/1604 -SHRA BKN015
     FM160500 00000KT 3SM BR BKN015
     FM160900 00000KT 1SM BR OVC007
     FM161400 VRB03KT P6SM BKN015
     FM161600 VRB04KT P6SM BKN025
     FM161800 VRB05KT P6SM BKN040=



000
FTUS42 KCAE 152300
TAFCAE
TAF
KCAE 152339Z 1600/1624 06005KT P6SM OVC010
     FM160200 00000KT 6SM BR OVC008
     FM160900 VRB03KT 3SM BR OVC003
     FM161400 VRB03KT P6SM BKN015
     FM161700 VRB04KT P6SM BKN025
     FM161900 VRB05KT P6SM BKN040=



000
FTUS42 KCAE 152300
TAFCUB
TAF
KCUB 152339Z 1600/1624 VRB03KT P6SM OVC015
     FM160400 00000KT 5SM BR OVC009
     FM161400 VRB03KT P6SM BKN015
     FM161700 VRB04KT P6SM BKN025
     FM161900 VRB05KT P6SM BKN040=



000
FTUS42 KCAE 152300
TAFDNL
TAF
KDNL 152339Z 1600/1624 VRB03KT 5SM BR OVC009
     FM160900 VRB03KT 3SM BR OVC007
     FM161400 VRB04KT P6SM BKN015
     FM161700 VRB04KT P6SM BKN025
     FM161900 VRB05KT P6SM BKN040=



000
FTUS42 KCAE 152300
TAFOGB
TAF
KOGB 152339Z 1600/1624 VRB04KT P6SM BKN015 OVC030
     FM160500 00000KT 3SM BR BKN015
     FM160900 00000KT 1SM BR OVC007
     FM161400 VRB03KT P6SM BKN015
     FM161600 VRB04KT P6SM BKN025
     FM161800 VRB05KT P6SM BKN040=



000
FTUS42 KCAE 152300
TAFAGS
TAF
KAGS 152339Z 1600/1624 00000KT P6SM BKN010 OVC030
     FM160200 00000KT 4SM BR OVC008
     FM160600 00000KT 2SM BR OVC004
     FM161500 VRB03KT P6SM BKN015
     FM161700 VRB04KT P6SM BKN025
     FM161900 VRB05KT P6SM BKN040=



000
FTUS42 KCAE 152100 AAA
TAFOGB
TAF AMD
KOGB 152146Z 1522/1618 06005KT P6SM SCT009 OVC090
     FM160200 00000KT 3SM BR BKN015
     FM160600 00000KT 1SM BR OVC007
     FM161400 34005KT P6SM BKN015=



000
FTUS42 KCAE 152100 AAA
TAFCUB
TAF AMD
KCUB 152146Z 1522/1618 VRB03KT P6SM OVC015
     FM160600 00000KT 5SM BR OVC009
     FM161400 32005KT P6SM BKN015=



000
FTUS42 KCAE 152100 AAA
TAFDNL
TAF AMD
KDNL 152146Z 1522/1618 VRB03KT P6SM OVC010
     FM160900 VRB03KT 3SM BR OVC007
     FM161400 25005KT P6SM BKN015=



000
FTUS42 KCAE 152100 AAA
TAFAGS
TAF AMD
KAGS 152146Z 1522/1618 04004KT P6SM OVC009
     FM160200 00000KT 4SM BR OVC007
     FM160600 00000KT 2SM BR OVC004
     FM161500 VRB03KT P6SM BKN015=



000
FTUS42 KCAE 152100 AAA
TAFCAE
TAF AMD
KCAE 152146Z 1522/1618 06005KT P6SM OVC010
     FM160400 00000KT 6SM BR OVC008
     FM160900 00000KT 3SM BR OVC003
     FM161400 34005KT P6SM BKN015=



000
FTUS42 KCAE 151700
TAFCAE
TAF
KCAE 151726Z 1518/1618 06005KT P6SM VCSH BKN008 OVC015
     FM161000 VRB03KT 3SM BR OVC008
     FM161400 34005KT P6SM BKN015=



000
FTUS42 KCAE 151700
TAFDNL
TAF
KDNL 151726Z 1518/1618 05005KT P6SM VCSH OVC009
     FM160900 VRB03KT 3SM BR OVC007
     FM161400 25005KT P6SM BKN015=



000
FTUS42 KCAE 151700
TAFOGB
TAF
KOGB 151726Z 1518/1618 06005KT P6SM VCSH OVC009
     FM160200 VRB03KT 3SM BR BKN008
     FM160600 VRB03KT 1SM BR OVC007
     FM161400 34005KT P6SM BKN015=



000
FTUS42 KCAE 151700
TAFCUB
TAF
KCUB 151726Z 1518/1618 VRB03KT P6SM VCSH SCT009 OVC015
      TEMPO 1518/1521 BKN009
     FM160600 VRB03KT 5SM BR OVC009
     FM161400 32005KT P6SM BKN015=



000
FTUS42 KCAE 151700
TAFAGS
TAF
KAGS 151726Z 1518/1618 04004KT 5SM BR VCSH OVC008
     FM160600 VRB03KT 2SM BR OVC006
     FM161500 VRB03KT P6SM BKN015=



000
FTUS42 KCAE 151600 AAB
TAFCUB
TAF AMD
KCUB 151635Z 1517/1612 VRB03KT P6SM VCSH SCT007 OVC015
      TEMPO 1517/1521 5SM BR BKN009
     FM152100 VRB03KT P6SM VCSH OVC010
     FM161100 VRB03KT 5SM BR BKN009=



000
FTUS42 KCAE 151600 AAB
TAFCAE
TAF AMD
KCAE 151631Z 1517/1612 07006KT 5SM BR VCSH BKN007 OVC015
     FM151800 VRB03KT P6SM VCSH BKN009 OVC020
     FM161000 VRB03KT 5SM BR OVC008=



000
FTUS42 KCAE 151600 AAB
TAFOGB
TAF AMD
KOGB 151629Z 1516/1612 VRB03KT P6SM VCSH OVC009
     FM161000 VRB03KT 3SM BR BKN008=



000
FTUS42 KCAE 151600 AAB
TAFDNL
TAF AMD
KDNL 151628Z 1516/1612 05005KT P6SM VCSH OVC006
      TEMPO 1516/1519 4SM -SHRA
     FM161000 VRB03KT 3SM BR OVC006=



000
FTUS42 KCAE 151600 AAB
TAFAGS
TAF AMD
KAGS 151628Z 1516/1612 00000KT 5SM BR VCSH OVC006
     FM160600 VRB03KT 2SM BR BKN008=



000
FTUS42 KCAE 151400 AAA
TAFDNL
TAF AMD
KDNL 151413Z 1514/1612 VRB03KT P6SM VCSH OVC006
      TEMPO 1514/1516 4SM -SHRA
     FM151700 VRB03KT P6SM VCSH OVC012
     FM161000 VRB03KT 3SM BR OVC009=



000
FTUS42 KCAE 151400 AAA
TAFAGS
TAF AMD
KAGS 151412Z 1514/1612 00000KT 5SM BR VCSH OVC006
      TEMPO 1514/1516 2SM -SHRA
     FM151700 VRB03KT P6SM VCSH OVC012
     FM160600 VRB03KT 2SM BR BKN008=



000
FTUS42 KCAE 151400 AAA
TAFOGB
TAF AMD
KOGB 151406Z 1514/1612 VRB03KT P6SM VCSH OVC008
      TEMPO 1514/1516 3SM -SHRA BR
     FM151700 VRB03KT P6SM VCSH OVC012
     FM161000 VRB03KT 3SM BR BKN008=



000
FTUS42 KCAE 151400 AAA
TAFCUB
TAF AMD
KCUB 151404Z 1514/1612 VRB03KT P6SM VCSH SCT007 OVC015
      TEMPO 1514/1516 5SM BR
     FM151700 VRB03KT P6SM VCSH OVC015
     FM160600 VRB03KT P6SM BKN012=



000
FTUS42 KCAE 151400 AAA
TAFCAE
TAF AMD
KCAE 151402Z 1514/1612 VRB03KT 5SM BR VCSH BKN007 OVC015
     FM151800 VRB03KT P6SM VCSH OVC012
     FM161000 VRB03KT 5SM BR OVC012=



000
FTUS42 KCAE 151100
TAFDNL
TAF
KDNL 151127Z 1512/1612 VRB03KT P6SM VCSH OVC006
      TEMPO 1512/1515 4SM -SHRA
     FM151600 VRB03KT P6SM VCSH OVC012
     FM152000 VRB04KT P6SM VCSH OVC035
     FM160600 VRB03KT P6SM BKN025=



000
FTUS42 KCAE 151100
TAFCUB
TAF
KCUB 151127Z 1512/1612 VRB03KT P6SM VCSH SCT007 OVC015
      TEMPO 1512/1514 4SM -SHRA BR BKN007
     FM151600 VRB03KT P6SM VCSH OVC012
     FM152100 VRB04KT P6SM VCSH OVC030
     FM160600 VRB03KT P6SM BKN025=



000
FTUS42 KCAE 151100
TAFAGS
TAF
KAGS 151127Z 1512/1612 00000KT 5SM BR VCSH OVC006
      TEMPO 1512/1515 2SM -SHRA
     FM151600 VRB03KT P6SM VCSH OVC012
     FM152000 VRB04KT P6SM VCSH OVC035
     FM160600 VRB03KT P6SM BKN025=



000
FTUS42 KCAE 151100
TAFCAE
TAF
KCAE 151127Z 1512/1612 VRB03KT 5SM BR BKN007 OVC015
      TEMPO 1512/1514 3SM -RA BR
     FM151600 VRB03KT P6SM VCSH OVC012
     FM152100 VRB04KT P6SM VCSH OVC030
     FM160600 VRB03KT P6SM BKN025=



000
FTUS42 KCAE 151100
TAFOGB
TAF
KOGB 151127Z 1512/1612 VRB03KT P6SM VCSH OVC006
      TEMPO 1512/1514 3SM -SHRA BR
     FM151600 VRB03KT P6SM OVC012
     FM152000 VRB04KT P6SM OVC030
     FM160600 VRB03KT P6SM BKN025=



000
FTUS42 KCAE 151000 AAA
TAFDNL
TAF AMD
KDNL 151030Z 1511/1606 VRB03KT P6SM VCSH OVC007
      TEMPO 1512/1515 -SHRA OVC010
     FM151500 VRB03KT P6SM VCSH OVC015
     FM152000 VRB04KT P6SM VCSH OVC035=



000
FTUS42 KCAE 151000 AAC
TAFOGB
TAF AMD
KOGB 151030Z 1511/1606 VRB03KT P6SM VCSH OVC006
      TEMPO 1512/1514 4SM -SHRA BR BKN010
     FM151500 VRB03KT P6SM OVC015
     FM152000 VRB04KT P6SM OVC035=



000
FTUS42 KCAE 151000 AAC
TAFAGS
TAF AMD
KAGS 151030Z 1511/1606 00000KT 6SM BR VCSH OVC006
      TEMPO 1512/1515 4SM -SHRA OVC010
     FM151500 VRB03KT P6SM VCSH OVC015
     FM152000 VRB04KT P6SM VCSH OVC035=



000
FTUS42 KCAE 150900 AAB
TAFCUB
TAF AMD
KCUB 150945Z 1510/1606 VRB03KT P6SM VCSH OVC015
      TEMPO 1510/1514 5SM -SHRA BR OVC007
     FM151400 VRB03KT P6SM OVC020
     FM152000 VRB04KT P6SM OVC035=



000
FTUS42 KCAE 150900 CCA
TAFCAE
TAF COR
KCAE 150945Z 1510/1606 VRB03KT P6SM VCSH OVC015
      TEMPO 1510/1514 5SM -SHRA BR OVC007
     FM151400 VRB03KT P6SM OVC020
     FM152000 VRB04KT P6SM OVC035=



000
FTUS42 KCAE 150900 AAB
TAFCAE
TAF AMD
KCAE 150944Z 1510/1606 VRB03KT P6SM VCSH OVC015
      TEMPO 1510/1514 5SM -SHRA BR OVC007
     FM151400 VRB03KT P6SM OVC015
     FM152000 VRB04KT P6SM OVC035=



000
FTUS42 KCAE 150900 AAB
TAFOGB
TAF AMD
KOGB 150916Z 1509/1606 VRB03KT P6SM OVC006
      TEMPO 1510/1513 4SM BR
     FM151500 VRB03KT P6SM OVC015
     FM152000 VRB04KT P6SM OVC035=



000
FTUS42 KCAE 150900 AAB
TAFAGS
TAF AMD
KAGS 150914Z 1509/1606 00000KT 3SM BR OVC005
     FM151500 VRB03KT P6SM OVC015
     FM152000 VRB04KT P6SM OVC035=



000
FTUS42 KCAE 150800 AAA
TAFOGB
TAF AMD
KOGB 150843Z 1509/1606 VRB03KT P6SM OVC004
     FM151600 VRB03KT P6SM OVC015
     FM152000 VRB04KT P6SM OVC035=



000
FTUS42 KCAE 150800 AAA
TAFAGS
TAF AMD
KAGS 150842Z 1509/1606 00000KT 3SM BR OVC004
     FM151500 VRB03KT P6SM OVC015
     FM152000 VRB04KT P6SM OVC035=



000
FTUS42 KCAE 150800 AAA
TAFCAE
TAF AMD
KCAE 150841Z 1509/1606 08005KT P6SM OVC020
     FM151000 VRB03KT P6SM OVC007
      TEMPO 1510/1513 5SM BR
     FM151400 VRB03KT P6SM OVC015
     FM152000 VRB04KT P6SM OVC035=



000
FTUS42 KCAE 150800 AAA
TAFCUB
TAF AMD
KCUB 150841Z 1509/1606 VRB03KT P6SM OVC020
     FM151000 VRB03KT P6SM OVC007
      TEMPO 1510/1513 5SM BR
     FM151400 VRB03KT P6SM OVC015
     FM152000 VRB04KT P6SM OVC035=



000
FTUS42 KCAE 150500
TAFDNL
TAF
KDNL 150534Z 1506/1606 03005KT P6SM VCSH OVC015
      TEMPO 1507/1508 -SHRA BKN007
     FM150800 VRB03KT P6SM OVC007
     FM151500 VRB03KT P6SM OVC015
     FM152000 VRB04KT P6SM OVC035=



000
FTUS42 KCAE 150500
TAFCUB
TAF
KCUB 150534Z 1506/1606 03005KT P6SM OVC020
      TEMPO 1506/1507 -SHRA BKN009
     FM150800 VRB03KT P6SM OVC007
      TEMPO 1509/1513 5SM BR
     FM151400 VRB03KT P6SM OVC015
     FM152000 VRB04KT P6SM OVC035=



000
FTUS42 KCAE 150500
TAFCAE
TAF
KCAE 150534Z 1506/1606 08005KT P6SM OVC020
      TEMPO 1506/1507 -SHRA BKN009
     FM150800 VRB03KT P6SM OVC007
      TEMPO 1509/1513 5SM BR
     FM151400 VRB03KT P6SM OVC015
     FM152000 VRB04KT P6SM OVC035=



000
FTUS42 KCAE 150500
TAFOGB
TAF
KOGB 150534Z 1506/1606 04005KT P6SM VCSH OVC009
     FM150800 VRB03KT P6SM OVC007
     FM151000 00000KT 3SM BR OVC004
     FM151600 VRB03KT P6SM OVC015
     FM152000 VRB04KT P6SM OVC035=



000
FTUS42 KCAE 150500
TAFAGS
TAF
KAGS 150534Z 1506/1606 00000KT P6SM VCSH OVC015
     FM150800 00000KT 3SM BR OVC007
     FM151500 VRB03KT P6SM OVC015
     FM152000 VRB04KT P6SM OVC035=



000
FTUS42 KCAE 150400 CCA
TAFCUB
TAF COR
KCUB 150436Z 1505/1524 03005KT P6SM OVC020
      TEMPO 1505/1507 -SHRA BKN009
     FM150800 VRB03KT P6SM OVC007
      TEMPO 1509/1513 5SM BR
     FM151400 VRB03KT P6SM OVC015
     FM152000 VRB04KT P6SM OVC035=



000
FTUS42 KCAE 150400 CCA
TAFCAE
TAF COR
KCAE 150435Z 1505/1524 03005KT P6SM OVC020
      TEMPO 1505/1507 -SHRA BKN009
     FM150800 VRB03KT P6SM OVC007
      TEMPO 1509/1513 5SM BR
     FM151400 VRB03KT P6SM OVC015
     FM152000 VRB04KT P6SM OVC035=



000
FTUS42 KCAE 150400 AAC
TAFCUB
TAF AMD
KCUB 150433Z 1505/1524 03005KT P6SM OVC020
      TEMPO 1505/1507 -SHRA BKN009
     FM150800 VRB03KT P6SM OVC007
      TEMPO 1509/1513 5SM BR
     FM152000 VRB04KT P6SM OVC035=



000
FTUS42 KCAE 150400 AAD
TAFCAE
TAF AMD
KCAE 150433Z 1505/1524 03005KT P6SM OVC020
      TEMPO 1505/1507 -SHRA BKN009
     FM150800 VRB03KT P6SM OVC007
      TEMPO 1509/1513 5SM BR
     FM152000 VRB04KT P6SM OVC035=



000
FTUS42 KCAE 150400 AAC
TAFOGB
TAF AMD
KOGB 150423Z 1504/1524 04005KT P6SM VCSH OVC009
      TEMPO 1504/1506 -SHRA BKN015
     FM150800 VRB03KT P6SM OVC007
     FM151000 00000KT 3SM BR OVC004
     FM151600 VRB03KT P6SM OVC015
     FM152000 VRB04KT P6SM OVC035=



000
FTUS42 KCAE 150300 AAC
TAFDNL
TAF AMD
KDNL 150336Z 1504/1524 03005KT P6SM OVC015
     FM150700 VRB03KT P6SM OVC007
     FM150900 VRB03KT 3SM BR OVC003
     FM151400 VRB03KT P6SM OVC007
     FM151800 VRB03KT P6SM OVC025
     FM152000 VRB04KT P6SM OVC035=



000
FTUS42 KCAE 150300 AAC
TAFAGS
TAF AMD
KAGS 150336Z 1504/1524 00000KT P6SM OVC015
     FM150800 00000KT 3SM BR OVC007
     FM151500 VRB03KT P6SM OVC015
     FM152000 VRB04KT P6SM OVC035=



000
FTUS42 KCAE 150300 AAC
TAFCAE
TAF AMD
KCAE 150336Z 1504/1524 03005KT P6SM OVC020
      TEMPO 1509/1513 5SM BR OVC007
     FM152000 VRB04KT P6SM OVC035=



000
FTUS42 KCAE 150300 AAB
TAFOGB
TAF AMD
KOGB 150336Z 1504/1524 04005KT P6SM VCSH OVC015
     FM150800 VRB03KT P6SM OVC007
     FM151000 00000KT 3SM BR OVC004
     FM151600 VRB03KT P6SM OVC015
     FM152000 VRB04KT P6SM OVC035=



000
FTUS42 KCAE 150300 AAB
TAFCUB
TAF AMD
KCUB 150336Z 1504/1524 03005KT P6SM OVC020
      TEMPO 1509/1513 5SM BR OVC007
     FM152000 VRB04KT P6SM OVC035=



000
FTUS42 KCAE 150200 AAB
TAFDNL
TAF AMD
KDNL 150239Z 1503/1524 03005KT P6SM OVC015
     FM150700 VRB03KT P6SM OVC007
     FM150900 VRB03KT 3SM BR OVC003
     FM151400 VRB03KT P6SM OVC007
     FM151800 VRB03KT P6SM OVC025
     FM152000 VRB04KT P6SM OVC035=



000
FTUS42 KCAE 150200 AAB
TAFAGS
TAF AMD
KAGS 150239Z 1503/1524 00000KT P6SM -RA OVC015
     FM150400 00000KT P6SM OVC015
     FM150800 00000KT 3SM BR OVC007
     FM151500 VRB03KT P6SM OVC010
     FM151800 VRB03KT P6SM OVC025
     FM152000 VRB04KT P6SM OVC035=



000
FTUS42 KCAE 150200 AAA
TAFCUB
TAF AMD
KCUB 150239Z 1503/1524 03005KT P6SM OVC025
     FM150600 00000KT P6SM OVC015
      TEMPO 1509/1513 5SM BR OVC007
     FM151400 VRB03KT P6SM OVC025
     FM151800 VRB03KT P6SM OVC025
     FM152000 VRB04KT P6SM OVC035=



000
FTUS42 KCAE 150200 AAA
TAFOGB
TAF AMD
KOGB 150239Z 1503/1524 04005KT P6SM OVC015
     FM150800 VRB03KT P6SM OVC007
     FM151000 00000KT 3SM BR OVC004
     FM151400 VRB03KT P6SM OVC010
     FM151600 VRB03KT P6SM OVC025
     FM151800 VRB03KT P6SM OVC025
     FM152000 VRB04KT P6SM OVC035=



000
FTUS42 KCAE 150200 AAB
TAFCAE
TAF AMD
KCAE 150239Z 1503/1524 03005KT P6SM OVC025
     FM150600 VRB03KT P6SM OVC015
      TEMPO 1509/1513 5SM BR OVC007
     FM151400 VRB03KT P6SM OVC025
     FM151800 VRB03KT P6SM OVC025
     FM152000 VRB04KT P6SM OVC035=



000
FTUS42 KCAE 150200 AAA
TAFDNL
TAF AMD
KDNL 150233Z 1503/1524 VRB03KT P6SM OVC015
     FM150400 VRB03KT P6SM OVC015
     FM150900 VRB03KT 5SM BR OVC007
     FM151400 VRB03KT P6SM OVC007
     FM151800 VRB03KT P6SM OVC025
     FM152000 VRB04KT P6SM OVC035=



000
FTUS42 KCAE 150200 AAA
TAFAGS
TAF AMD
KAGS 150232Z 1503/1524 00000KT P6SM -RA OVC015
     FM150400 00000KT P6SM OVC015
     FM150800 00000KT 3SM BR OVC007
     FM151500 VRB03KT P6SM OVC010
     FM151800 VRB03KT P6SM OVC025
     FM152000 VRB04KT P6SM OVC035=



000
FTUS42 KCAE 150100 AAA
TAFCAE
TAF AMD
KCAE 150110Z 1501/1524 03005KT P6SM OVC015
     FM150600 VRB03KT P6SM OVC007
      TEMPO 1509/1513 5SM BR OVC004
     FM151400 VRB03KT P6SM OVC025
     FM151800 VRB03KT P6SM OVC025
     FM152000 VRB04KT P6SM OVC035=



000
FTUS42 KCAE 142300 RRA
TAFCAE
TAF
KCAE 142341Z 1500/1524 03005KT P6SM OVC020
     FM150600 VRB03KT P6SM OVC015
      TEMPO 1509/1513 5SM BR OVC007
     FM151400 VRB03KT P6SM OVC025
     FM151800 VRB03KT P6SM OVC025
     FM152000 VRB04KT P6SM OVC035=



000
FTUS42 KCAE 142300 RRA
TAFAGS
TAF
KAGS 142341Z 1500/1524 03005KT P6SM OVC015
     FM150500 00000KT 4SM BR OVC007
     FM150800 00000KT 2SM BR OVC003
     FM151500 VRB03KT P6SM OVC010
     FM151800 VRB03KT P6SM OVC025
     FM152000 VRB04KT P6SM OVC035=



000
FTUS42 KCAE 142300 RRA
TAFOGB
TAF
KOGB 142341Z 1500/1524 04005KT P6SM OVC015
     FM150800 VRB03KT P6SM OVC007
     FM151000 00000KT 3SM BR OVC004
     FM151400 VRB03KT P6SM OVC010
     FM151600 VRB03KT P6SM OVC025
     FM151800 VRB03KT P6SM OVC025
     FM152000 VRB04KT P6SM OVC035=



000
FTUS42 KCAE 142300 RRA
TAFDNL
TAF
KDNL 142341Z 1500/1524 03005KT P6SM OVC015
     FM150700 VRB03KT P6SM OVC007
     FM150900 VRB03KT 3SM BR OVC003
     FM151400 VRB03KT P6SM OVC007
     FM151800 VRB03KT P6SM OVC025
     FM152000 VRB04KT P6SM OVC035=



000
FTUS42 KCAE 142300 RRA
TAFCUB
TAF
KCUB 142341Z 1500/1524 03005KT P6SM OVC020
     FM150600 00000KT P6SM OVC015
      TEMPO 1509/1513 5SM BR OVC007
     FM151400 VRB03KT P6SM OVC025
     FM151800 VRB03KT P6SM OVC025
     FM152000 VRB04KT P6SM OVC035=



000
FTUS42 KCAE 141900 AAB
TAFOGB
TAF AMD
KOGB 141950Z 1420/1518 04006KT P6SM OVC010
     FM150600 VRB03KT 4SM BR BKN007 OVC015
     FM151400 07005KT P6SM OVC025=



000
FTUS42 KCAE 141900 AAB
TAFAGS
TAF AMD
KAGS 141949Z 1420/1518 04006KT 5SM BR OVC007
     FM142200 06005KT P6SM OVC012
     FM150500 VRB03KT 2SM BR BKN007 OVC015
     FM151400 08005KT P6SM OVC025=



000
FTUS42 KCAE 141900 AAB
TAFDNL
TAF AMD
KDNL 141948Z 1420/1518 04006KT P6SM OVC008
     FM142100 06005KT P6SM OVC012
     FM150700 VRB03KT 4SM BR BKN007 OVC015
     FM151400 08005KT P6SM OVC025=



000
FTUS42 KCAE 141800 AAA
TAFAGS
TAF AMD
KAGS 141834Z 1419/1518 04006KT 6SM BR OVC006
     FM142100 06005KT P6SM OVC012
     FM150500 VRB03KT 2SM BR BKN007 OVC015
     FM151400 08005KT P6SM OVC025=



000
FTUS42 KCAE 141800 AAA
TAFDNL
TAF AMD
KDNL 141818Z 1418/1518 04006KT P6SM OVC006
     FM142100 06005KT P6SM OVC012
     FM150700 VRB03KT 4SM BR BKN007 OVC015
     FM151400 08005KT P6SM OVC025=



000
FTUS42 KCAE 141800 AAA
TAFOGB
TAF AMD
KOGB 141817Z 1418/1518 04006KT P6SM OVC006
     FM142100 06005KT P6SM OVC012
     FM150600 VRB03KT 4SM BR BKN007 OVC015
     FM151400 07005KT P6SM OVC025=



000
FTUS42 KCAE 141700
TAFCUB
TAF
KCUB 141738Z 1418/1518 06005KT P6SM OVC020
     FM150800 VRB03KT 4SM BR BKN007 OVC015
     FM151400 06005KT P6SM OVC025=



000
FTUS42 KCAE 141700
TAFDNL
TAF
KDNL 141738Z 1418/1518 04006KT P6SM OVC006
      TEMPO 1418/1419 6SM -DZ OVC004
     FM142100 06005KT P6SM OVC012
     FM150700 VRB03KT 4SM BR BKN007 OVC015
     FM151400 08005KT P6SM OVC025=



000
FTUS42 KCAE 141700
TAFAGS
TAF
KAGS 141738Z 1418/1518 04006KT P6SM OVC006
      TEMPO 1418/1419 5SM -DZ OVC005
     FM142100 06005KT P6SM OVC012
     FM150500 VRB03KT 2SM BR BKN007 OVC015
     FM151400 08005KT P6SM OVC025=



000
FTUS42 KCAE 141700
TAFOGB
TAF
KOGB 141738Z 1418/1518 05006KT P6SM OVC006
      TEMPO 1418/1419 6SM -DZ OVC004
     FM142100 06005KT P6SM OVC012
     FM150600 VRB03KT 4SM BR BKN007 OVC015
     FM151400 07005KT P6SM OVC025=



000
FTUS42 KCAE 141700
TAFCAE
TAF
KCAE 141738Z 1418/1518 06005KT P6SM OVC020
     FM150800 VRB03KT 4SM BR BKN007 OVC015
     FM151400 06005KT P6SM OVC025=



000
FTUS42 KCAE 141600 AAC
TAFDNL
TAF AMD
KDNL 141640Z 1417/1512 02006KT P6SM OVC006
      TEMPO 1417/1418 4SM -DZ SCT003 OVC006
     FM141900 06005KT P6SM VCSH OVC012
     FM150900 VRB03KT 4SM BR BKN007 OVC015=



000
FTUS42 KCAE 141600 AAD
TAFAGS
TAF AMD
KAGS 141638Z 1417/1512 05006KT P6SM OVC006
      TEMPO 1417/1418 3SM -DZ SCT003 OVC006
     FM141900 06005KT P6SM OVC012
     FM150900 VRB03KT 4SM BR BKN007 OVC015=



000
FTUS42 KCAE 141600 AAB
TAFCUB
TAF AMD
KCUB 141614Z 1416/1512 06005KT P6SM OVC015
     FM142000 06005KT P6SM OVC035
     FM150900 VRB03KT 4SM BR BKN007 OVC015=



000
FTUS42 KCAE 141600 AAC
TAFCAE
TAF AMD
KCAE 141614Z 1416/1512 06005KT P6SM OVC015
     FM142000 06005KT P6SM OVC035
     FM150900 VRB03KT 4SM BR BKN007 OVC015=



000
FTUS42 KCAE 141400 AAA
TAFCUB
TAF AMD
KCUB 141417Z 1414/1512 05006KT 6SM -DZ OVC006
      TEMPO 1414/1416 2SM -DZ OVC006
     FM141900 06005KT P6SM VCSH OVC012
     FM150900 VRB03KT 4SM BR BKN007 OVC015=



000
FTUS42 KCAE 141400 AAC
TAFOGB
TAF AMD
KOGB 141417Z 1414/1512 05006KT P6SM -DZ OVC006
     FM141900 06005KT P6SM VCSH OVC012
     FM150900 VRB03KT 4SM BR BKN007 OVC015=



000
FTUS42 KCAE 141400 AAC
TAFAGS
TAF AMD
KAGS 141417Z 1414/1512 05006KT P6SM -DZ OVC015
      TEMPO 1414/1416 P6SM -DZ OVC006
     FM141900 06005KT P6SM VCSH OVC012
     FM150900 VRB03KT 4SM BR BKN007 OVC015=



000
FTUS42 KCAE 141400 AAB
TAFCAE
TAF AMD
KCAE 141417Z 1414/1512 05006KT 6SM -DZ OVC006
      TEMPO 1414/1416 2SM -DZ OVC006
     FM141900 06005KT P6SM VCSH OVC012
     FM150900 VRB03KT 4SM BR BKN007 OVC015=



000
FTUS42 KCAE 141400 AAB
TAFDNL
TAF AMD
KDNL 141417Z 1414/1512 05006KT P6SM -DZ OVC006
     FM141900 06005KT P6SM VCSH OVC012
     FM150900 VRB03KT 4SM BR BKN007 OVC015=



000
FTUS42 KCAE 141300 AAB
TAFOGB
TAF AMD
KOGB 141329Z 1413/1512 04004KT P6SM VCSH FEW004 BKN015 OVC040
      TEMPO 1413/1416 6SM -SHRA BR BKN006 OVC015
     FM141800 06005KT P6SM VCTS SCT030 BKN050CB
     FM150400 VRB03KT P6SM SCT007 OVC015
     FM150800 VRB03KT 5SM BR BKN007 OVC015=



000
FTUS42 KCAE 141300 AAA
TAFDNL
TAF AMD
KDNL 141328Z 1413/1512 04004KT P6SM VCSH SCT005 OVC012
      TEMPO 1413/1415 6SM -SHRA BR BKN005 OVC012
     FM141800 05007KT P6SM VCTS SCT030 BKN050CB
     FM150400 VRB03KT P6SM SCT010 BKN020
     FM150900 VRB03KT P6SM BKN007 OVC015=



000
FTUS42 KCAE 141300 AAA
TAFCAE
TAF AMD
KCAE 141310Z 1413/1512 VRB03KT 6SM BR VCSH BKN011 OVC035
      TEMPO 1413/1415 4SM -SHRA BR BKN007 OVC015
     FM141500 04004KT P6SM SCT008 BKN015 OVC030
     FM141800 VRB04KT P6SM VCSH BKN015 OVC030
     FM150200 VRB03KT P6SM SCT007 OVC015
     FM150900 VRB03KT P6SM BKN007 OVC015=



000
FTUS42 KCAE 141300 AAB
TAFAGS
TAF AMD
KAGS 141303Z 1413/1512 06005KT P6SM SCT060 BKN100
      TEMPO 1413/1415 6SM -SHRA BR OVC015
     FM141800 06006KT P6SM VCTS SCT030 BKN050CB
     FM150300 VRB03KT P6SM SCT007 OVC015
     FM150800 VRB03KT 5SM BR BKN007 OVC015=



000
FTUS42 KCAE 141300 AAA
TAFOGB
TAF AMD
KOGB 141302Z 1413/1512 VRB03KT P6SM VCSH FEW004 BKN015 OVC040
      TEMPO 1413/1414 6SM -SHRA BR BKN006 OVC015
     FM141400 04004KT P6SM SCT015 BKN040
     FM141800 06005KT P6SM VCTS SCT030 BKN050CB
     FM150400 VRB03KT P6SM SCT007 OVC015
     FM150800 VRB03KT 5SM BR BKN007 OVC015=



000
FTUS42 KCAE 141200 AAA
TAFAGS
TAF AMD
KAGS 141229Z 1412/1512 08005KT P6SM SCT060 BKN100
     FM141800 06006KT P6SM VCTS SCT030 BKN050CB
     FM150300 VRB03KT P6SM SCT007 OVC015
     FM150800 VRB03KT 5SM BR BKN007 OVC015=



000
FTUS42 KCAE 141100 CCA
TAFOGB
TAF COR
KOGB 141144Z 1412/1512 VRB03KT P6SM VCSH FEW004 BKN015 OVC040
      TEMPO 1412/1414 5SM -SHRA BR BKN004 OVC015
     FM141400 04004KT P6SM SCT015 BKN040
     FM141800 06005KT P6SM VCTS SCT030 BKN050CB
     FM150400 VRB03KT P6SM SCT007 OVC015
     FM150800 VRB03KT 5SM BR BKN007 OVC015=



000
FTUS42 KCAE 141100
TAFDNL
TAF
KDNL 141133Z 1412/1512 VRB03KT P6SM VCSH SCT005 BKN015 OVC020
      TEMPO 1412/1413 6SM -SHRA BR BKN005 OVC017
     FM141400 04004KT P6SM SCT015 BKN040
     FM141800 05007KT P6SM VCTS SCT030 BKN050CB
     FM150400 VRB03KT P6SM SCT010 BKN020
     FM150900 VRB03KT P6SM BKN007 OVC015=



000
FTUS42 KCAE 141100
TAFCUB
TAF
KCUB 141133Z 1412/1512 VRB03KT P6SM VCSH BKN011 OVC035
      TEMPO 1412/1414 6SM -SHRA BR BKN008 OVC015
     FM141400 04004KT P6SM SCT008 BKN015 OVC030
     FM141800 VRB04KT P6SM VCSH BKN015 OVC030
     FM150200 VRB03KT P6SM SCT007 OVC015
     FM150900 VRB03KT P6SM BKN007 OVC015=



000
FTUS42 KCAE 141100
TAFCAE
TAF
KCAE 141133Z 1412/1512 VRB03KT 6SM BR VCSH BKN011 OVC035
      TEMPO 1412/1414 6SM -SHRA BR BKN008 OVC015
     FM141400 04004KT P6SM SCT008 BKN015 OVC030
     FM141800 VRB04KT P6SM VCSH BKN015 OVC030
     FM150200 VRB03KT P6SM SCT007 OVC015
     FM150900 VRB03KT P6SM BKN007 OVC015=



000
FTUS42 KCAE 141100
TAFAGS
TAF
KAGS 141133Z 1412/1512 VRB03KT P6SM VCSH SCT005 BKN015 OVC020
      TEMPO 1412/1413 6SM -SHRA BR BKN005 OVC015
     FM141500 04004KT P6SM SCT015 BKN040
     FM141800 05006KT P6SM VCTS SCT030 BKN050CB
     FM150300 VRB03KT P6SM SCT007 OVC015
     FM150800 VRB03KT 5SM BR BKN007 OVC015=



000
FTUS42 KCAE 141100
TAFOGB
TAF
KOGB 141133Z 1412/1512 VRB03KT P6SM VCSH FEW004 SCT015 OVC040
      TEMPO 1412/1414 5SM -SHRA BR BKN004 OVC015
     FM141400 04004KT P6SM SCT015 BKN040
     FM141800 06005KT P6SM VCTS SCT030 BKN050CB
     FM150400 VRB03KT P6SM SCT007 OVC015
     FM150800 VRB03KT 5SM BR BKN007 OVC015=



000
FTUS42 KCAE 140900 AAA
TAFCAE
TAF AMD
KCAE 140932Z 1410/1506 VRB03KT 6SM BR SCT005 BKN014 OVC035
      TEMPO 1410/1413 5SM -SHRA BR BKN005 OVC015
     FM141400 04004KT P6SM SCT008 BKN015 OVC030
     FM141800 VRB04KT P6SM VCSH BKN015 OVC030
     FM150200 VRB03KT P6SM SCT007 OVC015=



000
FTUS42 KCAE 140900 AAA
TAFCUB
TAF AMD
KCUB 140932Z 1410/1506 VRB03KT 6SM BR SCT005 BKN014 OVC035
      TEMPO 1410/1413 5SM -SHRA BR BKN005 OVC015
     FM141400 04004KT P6SM SCT008 BKN015 OVC030
     FM141800 VRB04KT P6SM VCSH BKN015 OVC030
     FM150200 VRB03KT P6SM SCT007 OVC015=



000
FTUS42 KCAE 140900 AAA
TAFDNL
TAF AMD
KDNL 140932Z 1410/1506 VRB03KT P6SM VCSH SCT005 BKN015 OVC040
      TEMPO 1410/1413 6SM -SHRA BR BKN003 OVC015
     FM141400 04004KT P6SM SCT015 BKN040
     FM141800 05007KT P6SM VCSH SCT030 BKN050
     FM150400 VRB03KT P6SM SCT012 BKN025=



000
FTUS42 KCAE 140900 AAB
TAFOGB
TAF AMD
KOGB 140932Z 1410/1506 VRB03KT P6SM VCSH SCT004 BKN035 OVC045
      TEMPO 1410/1413 3SM TSRA BR BKN005CB OVC035
     FM141400 04004KT P6SM SCT015 BKN040
     FM141800 06005KT P6SM VCSH SCT030 BKN050
     FM150400 VRB03KT P6SM SCT007 OVC015=



000
FTUS42 KCAE 140900 AAA
TAFAGS
TAF AMD
KAGS 140932Z 1410/1506 VRB03KT P6SM VCSH SCT005 BKN015 OVC040
      TEMPO 1410/1413 6SM -SHRA BR BKN005 OVC015
     FM141400 04004KT P6SM SCT015 BKN040
     FM141800 05006KT P6SM VCSH SCT030 BKN050
     FM150400 VRB03KT P6SM SCT007 OVC015=



000
FTUS42 KCAE 140600 AAA
TAFOGB
TAF AMD
KOGB 140620Z 1406/1506 VRB03KT P6SM VCSH SCT004 BKN035 OVC045
      TEMPO 1406/1410 3SM TSRA BR BKN005CB OVC035
     FM141000 VRB03KT 5SM BR SCT005 BKN012 OVC035
     FM141400 04004KT P6SM SCT015 BKN040
     FM141800 06005KT P6SM VCSH SCT030 BKN050
     FM150400 VRB03KT P6SM SCT007 OVC015=



000
FTUS42 KCAE 140500
TAFDNL
TAF
KDNL 140539Z 1406/1506 VRB03KT P6SM VCSH SCT015 BKN040 OVC060
      TEMPO 1406/1410 3SM SHRA BR BKN005 OVC035
     FM141000 VRB03KT 5SM BR SCT007 OVC015
     FM141400 04004KT P6SM SCT015 BKN040
     FM141800 05007KT P6SM VCSH SCT030 BKN050
     FM150400 VRB03KT P6SM SCT012 BKN025=



000
FTUS42 KCAE 140500
TAFOGB
TAF
KOGB 140539Z 1406/1506 VRB03KT P6SM VCSH SCT004 BKN035 OVC045
      TEMPO 1406/1410 3SM SHRA BR BKN005 OVC035
     FM141000 VRB03KT 5SM BR SCT005 BKN012 OVC035
     FM141400 04004KT P6SM SCT015 BKN040
     FM141800 06005KT P6SM VCSH SCT030 BKN050
     FM150400 VRB03KT P6SM SCT007 OVC015=



000
FTUS42 KCAE 140500
TAFAGS
TAF
KAGS 140539Z 1406/1506 VRB03KT P6SM VCSH SCT015 BKN040 OVC060
      TEMPO 1406/1410 3SM SHRA BR BKN005 OVC035
     FM141000 VRB03KT 5SM BR SCT007 OVC015
     FM141400 04004KT P6SM SCT015 BKN040
     FM141800 05006KT P6SM VCSH SCT030 BKN050
     FM150400 VRB03KT P6SM SCT007 OVC015=



000
FTUS42 KCAE 140500
TAFCAE
TAF
KCAE 140539Z 1406/1506 VRB04KT P6SM VCSH SCT005 BKN035 OVC050
      TEMPO 1406/1409 4SM BR BKN005 OVC035
     FM140900 VRB03KT 5SM BR SCT005 BKN012 OVC035
     FM141400 04004KT P6SM SCT008 BKN015 OVC030
     FM141800 VRB04KT P6SM VCSH BKN015 OVC030
     FM150200 VRB03KT P6SM SCT007 OVC015=



000
FTUS42 KCAE 140500
TAFCUB
TAF
KCUB 140539Z 1406/1506 VRB04KT P6SM VCSH SCT005 BKN035 OVC050
      TEMPO 1406/1409 4SM BR BKN005 OVC035
     FM140900 VRB03KT 5SM BR SCT005 BKN012 OVC035
     FM141400 04004KT P6SM SCT008 BKN015 OVC030
     FM141800 VRB04KT P6SM VCSH BKN015 OVC030
     FM150200 VRB03KT P6SM SCT007 OVC015=



000
FTUS42 KCAE 140400 AAB
TAFCAE
TAF AMD
KCAE 140452Z 1405/1424 VRB04KT P6SM VCSH SCT005 BKN035 OVC050
      TEMPO 1405/1409 4SM BR BKN005 OVC035
     FM140900 VRB03KT 5SM BR SCT005 BKN012 OVC035
     FM141400 04004KT P6SM SCT015 BKN040
     FM141800 06006KT P6SM OVC030=



000
FTUS42 KCAE 140400 AAB
TAFOGB
TAF AMD
KOGB 140449Z 1405/1424 VRB03KT P6SM VCSH SCT005 BKN035 OVC045
      TEMPO 1405/1409 3SM SHRA BR BKN005 OVC035
     FM140900 VRB03KT 5SM BR SCT005 BKN012 OVC035
     FM141400 04004KT P6SM SCT015 BKN040
     FM141900 06005KT P6SM VCSH SCT030 BKN050=



000
FTUS42 KCAE 140200 AAA
TAFCAE
TAF AMD
KCAE 140232Z 1403/1424 VRB04KT P6SM VCSH BKN040
     FM140900 04004KT P6SM OVC015
      TEMPO 1410/1414 5SM BR
     FM141800 06006KT P6SM OVC030=



000
FTUS42 KCAE 140200 AAA
TAFDNL
TAF AMD
KDNL 140232Z 1403/1424 VRB03KT P6SM VCSH BKN040
     FM140900 05004KT P6SM OVC015
      TEMPO 1410/1414 4SM BR
     FM141800 07005KT P6SM OVC030=



000
FTUS42 KCAE 140200 AAA
TAFCUB
TAF AMD
KCUB 140232Z 1403/1424 VRB03KT P6SM VCSH BKN040
     FM140900 04004KT P6SM OVC015
      TEMPO 1410/1414 5SM BR
     FM141800 05006KT P6SM OVC030=



000
FTUS42 KCAE 140200 AAA
TAFOGB
TAF AMD
KOGB 140232Z 1403/1424 VRB03KT P6SM VCSH BKN040
     FM140900 03004KT P6SM OVC015
      TEMPO 1410/1414 4SM BR
     FM141900 07005KT P6SM OVC030=



000
FTUS42 KCAE 140200 AAA
TAFAGS
TAF AMD
KAGS 140232Z 1403/1424 VRB03KT P6SM VCSH BKN040
     FM140900 05002KT P6SM OVC015
      TEMPO 1410/1414 2SM BR BKN006
     FM141800 05004KT P6SM OVC030=



000
FTUS42 KCAE 132300
TAFOGB
TAF
KOGB 132333Z 1400/1424 VRB05KT P6SM VCTS BKN040CB
     FM140300 VRB03KT P6SM VCSH BKN040
     FM140900 03004KT 4SM BR OVC015
     FM141500 07005KT P6SM OVC020=



000
FTUS42 KCAE 132300
TAFCUB
TAF
KCUB 132333Z 1400/1424 VRB05KT P6SM VCTS BKN040CB
     FM140300 VRB03KT P6SM VCSH BKN040
     FM140900 04004KT 5SM BR OVC015
     FM141500 05006KT P6SM OVC020=



000
FTUS42 KCAE 132300
TAFAGS
TAF
KAGS 132333Z 1400/1424 VRB05KT P6SM VCTS BKN040CB
     FM140300 VRB03KT P6SM VCSH BKN040
     FM140900 05002KT 2SM BR BKN006 OVC015
     FM141500 05004KT P6SM OVC020=



000
FTUS42 KCAE 132300
TAFDNL
TAF
KDNL 132333Z 1400/1424 VRB05KT P6SM VCTS BKN040CB
     FM140300 VRB03KT P6SM VCSH BKN040
     FM140900 05004KT 4SM BR OVC015
     FM141500 07005KT P6SM OVC020=



000
FTUS42 KCAE 132300
TAFCAE
TAF
KCAE 132333Z 1400/1424 VRB05KT P6SM VCTS BKN040CB
     FM140300 VRB03KT P6SM VCSH BKN040
     FM140900 04004KT 5SM BR OVC015
     FM141500 06006KT P6SM OVC020=



000
FTUS42 KCAE 132100 AAA
TAFOGB
TAF AMD
KOGB 132150Z 1322/1418 VRB05KT P6SM VCTS SCT025 BKN045CB
      TEMPO 1322/1323 1SM TSRA BKN025CB
     FM140200 VRB03KT P6SM VCSH SCT040 BKN060
     FM140900 03004KT P6SM OVC015=



    US Dept of Commerce
    National Oceanic and Atmospheric Administration
    National Weather Service
    1325 East West Highway
    Silver Spring, MD 20910
    Page Author: NWS Internet Services Team
Disclaimer
Information Quality
Credits
Glossary
Privacy Policy
Freedom of Information Act (FOIA)
About Us
Career Opportunities